This is the latest recevied weather packets stored in our database for station/object SQ7FJB-2. If no packets are shown the sender has not sent any weather packets the latest 10 day(s).
| Time | Temp. | Humidity | Pressure | Rain* | Wind** | Luminosity | Snow |
|---|---|---|---|---|---|---|---|
| 1778162718 | 16.67° C | 76% | 1010.6 hPa | 0 mm | - | - | - |
| 1778162118 | 16.67° C | 75% | 1010.6 hPa | 0 mm | - | - | - |
| 1778161517 | 16.67° C | 73% | 1010.5 hPa | 0 mm | - | - | - |
| 1778160905 | 16.67° C | 73% | 1010.5 hPa | 0 mm | - | - | - |
| 1778160305 | 16.67° C | 73% | 1010.3 hPa | 0 mm | - | - | - |
| 1778159705 | 17.22° C | 72% | 1010.7 hPa | 0 mm | - | - | - |
| 1778159093 | 17.22° C | 75% | 1010.6 hPa | 0 mm | - | - | - |
| 1778158480 | 16.67° C | 74% | 1010.5 hPa | 0 mm | - | - | - |
| 1778157867 | 16.11° C | 75% | 1010.5 hPa | 0 mm | - | - | - |
| 1778157267 | 16.11° C | 77% | 1010.4 hPa | 0 mm | - | - | - |
| 1778156667 | 16.11° C | 77% | 1010.5 hPa | 0 mm | - | - | - |
| 1778156067 | 15.56° C | 78% | 1010.6 hPa | 0 mm | - | - | - |
| 1778155468 | 15° C | 81% | 1010.7 hPa | 0 mm | - | - | - |
| 1778154855 | 16.11° C | 77% | 1010.8 hPa | 0 mm | - | - | - |
| 1778154255 | 16.11° C | 78% | 1010.7 hPa | 0 mm | - | - | - |
| 1778153655 | 15.56° C | 81% | 1010.7 hPa | 0.25 mm | - | - | - |
| 1778153043 | 15° C | 84% | 1010.7 hPa | 0.25 mm | - | - | - |
| 1778152443 | 15° C | 87% | 1010.7 hPa | 0.25 mm | - | - | - |
| 1778151843 | 14.44° C | 88% | 1010.6 hPa | 0.25 mm | - | - | - |
| 1778151230 | 13.89° C | 89% | 1010.6 hPa | 0.25 mm | - | - | - |
| 1778150630 | 13.89° C | 89% | 1010.6 hPa | 0.25 mm | - | - | - |
| 1778150018 | 13.33° C | 89% | 1010.5 hPa | 0 mm | - | - | - |
| 1778149405 | 13.33° C | 89% | 1010.4 hPa | 0 mm | - | - | - |
| 1778148792 | 13.33° C | 88% | 1010.3 hPa | 0 mm | - | - | - |
| 1778148192 | 13.89° C | 88% | 1010 hPa | 0 mm | - | - | - |
* Rain latest hour (hover to see other rain measurements)
** Current wind speed in m/s (hover to see current wind gust speed)